Terminal Aerodrome Forecast
Issued by NWS Mt. Holly, NJ

Home | Current Version | Previous Version | Text Only | Print | Product List | Glossary On
Versions: 1 2 3 4 5 6 7 8 9 10 11 12 13 14 15 16 17 18 19 20 21 22 23 24
000
FTUS41 KPHI 051722
TAFPHL
TAF
KPHL 051722Z 0518/0624 26008KT P6SM SCT050 BKN100
      TEMPO 0520/0524 6SM -SHRA BKN050
     FM060000 VRB04KT 6SM -SHRA SCT025 OVC050
     FM060600 03003KT P6SM SCT025 OVC050
     FM061200 05006KT 6SM -SHRA BR SCT020 OVC050=

USA.gov is the U.S. government's official web portal to all federal, state and local government web resources and services.